Time;durP1;ratioP1;P1;durP2;ratioP2;P2;SDS_P1;SDS_P2;PMS_P1;PMS_P2;Temp;Humidity;BMP_temperature;BMP_pressure;BME280_temperature;BME280_humidity;BME280_pressure;Samples;Min_cycle;Max_cycle;Signal;HPM_P1;HPM_P2
2022/12/24 00:01:00;;;;;;;23.95;9.73;;;;;;;1.82;100.00;99958.06;5017311;28;20038;-70
2022/12/24 00:03:26;;;;;;;23.27;9.32;;;;;;;1.79;100.00;99952.22;5014789;28;20664;-70
2022/12/24 00:05:52;;;;;;;22.30;8.48;;;;;;;1.76;100.00;99952.50;5013258;28;20091;-70
2022/12/24 00:08:17;;;;;;;16.50;7.63;;;;;;;1.85;100.00;99949.94;5005682;28;20087;-70
2022/12/24 00:10:44;;;;;;;22.80;7.35;;;;;;;1.93;100.00;99959.00;5014559;28;20802;-70
2022/12/24 00:13:09;;;;;;;18.95;7.80;;;;;;;1.91;100.00;99951.22;5015434;28;20038;-71
2022/12/24 00:15:34;;;;;;;14.45;8.23;;;;;;;1.90;100.00;99946.94;5004134;28;20030;-71
2022/12/24 00:18:00;;;;;;;19.13;7.17;;;;;;;1.91;100.00;99940.69;5008575;28;20554;-70
2022/12/24 00:20:25;;;;;;;18.73;7.03;;;;;;;1.92;100.00;99931.84;5006122;28;20471;-70
2022/12/24 00:22:50;;;;;;;26.23;8.40;;;;;;;1.90;100.00;99931.13;4995428;28;20053;-70
2022/12/24 00:25:16;;;;;;;20.63;7.20;;;;;;;1.83;100.00;99928.16;5005308;28;20318;-70
2022/12/24 00:27:41;;;;;;;17.67;6.47;;;;;;;1.84;100.00;99927.19;5014015;28;20041;-71
2022/12/24 00:30:07;;;;;;;15.17;6.90;;;;;;;1.79;100.00;99928.53;5006373;28;20033;-70
2022/12/24 00:32:33;;;;;;;13.05;7.15;;;;;;;1.84;100.00;99918.47;5021961;28;20083;-70
2022/12/24 00:34:58;;;;;;;11.63;5.22;;;;;;;1.89;100.00;99922.38;5017772;28;20567;-70
2022/12/24 00:37:23;;;;;;;14.10;6.03;;;;;;;1.86;100.00;99927.06;5015561;28;20034;-71
2022/12/24 00:39:49;;;;;;;14.03;6.80;;;;;;;1.83;100.00;99927.34;5014954;28;20048;-70
2022/12/24 00:42:14;;;;;;;17.70;6.93;;;;;;;1.83;100.00;99916.81;5021543;28;20303;-70
2022/12/24 00:44:39;;;;;;;17.47;6.47;;;;;;;1.83;100.00;99922.06;5021430;28;20040;-71
2022/12/24 00:47:05;;;;;;;13.50;6.57;;;;;;;1.77;100.00;99917.31;5018789;28;20292;-73
2022/12/24 00:49:30;;;;;;;14.53;7.63;;;;;;;1.73;100.00;99916.69;5022358;28;20055;-71
2022/12/24 00:51:55;;;;;;;22.23;9.07;;;;;;;1.78;100.00;99921.59;5000860;28;20048;-73
2022/12/24 00:54:21;;;;;;;14.33;7.57;;;;;;;1.73;100.00;99921.13;5020115;28;20320;-72
2022/12/24 00:56:46;;;;;;;12.40;6.33;;;;;;;1.73;100.00;99927.22;5001048;28;20034;-71
2022/12/24 00:59:11;;;;;;;15.03;6.93;;;;;;;1.79;100.00;99931.16;5011165;28;20283;-73
2022/12/24 01:01:37;;;;;;;15.37;7.40;;;;;;;1.77;100.00;99925.19;5021416;28;20475;-73
2022/12/24 01:06:46;;;;;;;19.90;9.88;;;;;;;1.74;100.00;99939.44;5018339;28;20042;-71
2022/12/24 01:09:12;;;;;;;17.27;7.63;;;;;;;1.71;100.00;99929.19;5004423;28;20065;-73
2022/12/24 01:11:37;;;;;;;18.00;9.45;;;;;;;1.77;100.00;99938.34;5011969;28;20283;-73
2022/12/24 01:14:03;;;;;;;20.42;8.50;;;;;;;1.80;100.00;99933.69;5020688;28;20026;-72
2022/12/24 01:16:28;;;;;;;15.88;7.55;;;;;;;1.80;100.00;99928.44;5003704;28;20072;-72
2022/12/24 01:18:54;;;;;;;14.47;6.77;;;;;;;1.80;100.00;99930.19;5000643;28;20045;-69
2022/12/24 01:21:19;;;;;;;23.85;6.95;;;;;;;1.71;100.00;99923.06;5020558;28;20064;-70
2022/12/24 01:23:44;;;;;;;20.42;7.13;;;;;;;1.77;100.00;99935.72;5010590;28;20029;-72
2022/12/24 01:26:13;;;;;;;13.73;6.93;;;;;;;1.74;100.00;99933.34;5018099;28;20491;-73
2022/12/24 01:28:39;;;;;;;15.55;6.47;;;;;;;1.76;100.00;99940.16;5003175;28;20287;-68
2022/12/24 01:31:16;;;;;;;18.00;6.93;;;;;;;1.78;100.00;99940.88;5009595;28;20041;-72
2022/12/24 01:33:43;;;;;;;16.88;7.22;;;;;;;1.78;100.00;99934.75;5020195;28;20041;-73
2022/12/24 01:36:09;;;;;;;15.52;5.88;;;;;;;1.79;100.00;99929.38;4996922;28;20828;-69
2022/12/24 01:38:35;;;;;;;14.27;6.10;;;;;;;1.75;100.00;99932.38;5007628;28;20029;-71
2022/12/24 01:43:44;;;;;;;15.00;6.85;;;;;;;1.78;100.00;99940.00;5017100;28;20029;-73
2022/12/24 01:46:18;;;;;;;15.68;6.50;;;;;;;1.80;100.00;99940.72;5014729;28;20040;-73
2022/12/24 01:48:51;;;;;;;26.05;6.63;;;;;;;1.79;100.00;99944.34;5017063;28;20084;-69
2022/12/24 01:51:41;;;;;;;11.85;6.05;;;;;;;1.86;100.00;99942.88;5016647;28;20042;-73
2022/12/24 01:54:11;;;;;;;11.70;5.30;;;;;;;1.83;100.00;99937.88;4989272;28;20044;-73
2022/12/24 01:56:43;;;;;;;23.77;6.75;;;;;;;1.80;100.00;99948.63;5002421;28;20037;-73
2022/12/24 01:59:11;;;;;;;18.83;5.38;;;;;;;1.87;100.00;99944.53;5007900;28;20178;-71
2022/12/24 02:01:38;;;;;;;17.67;6.57;;;;;;;1.89;100.00;99953.13;5007822;28;20021;-73
2022/12/24 02:04:10;;;;;;;13.45;6.28;;;;;;;1.89;100.00;99955.75;5018999;28;20025;-70
2022/12/24 02:06:35;;;;;;;13.02;5.00;;;;;;;1.82;100.00;99944.06;4996555;28;20061;-72
2022/12/24 02:09:00;;;;;;;11.43;5.63;;;;;;;1.87;100.00;99944.53;5014444;28;20088;-73
2022/12/24 02:11:26;;;;;;;12.37;5.80;;;;;;;1.87;100.00;99940.13;5009153;28;20376;-70
2022/12/24 02:13:55;;;;;;;12.15;5.47;;;;;;;1.90;100.00;99954.81;5014496;28;20087;-71
2022/12/24 02:16:36;;;;;;;14.52;5.57;;;;;;;1.90;100.00;99945.13;5001532;28;20148;-73
2022/12/24 02:19:34;;;;;;;14.68;5.80;;;;;;;1.82;100.00;99952.78;4996577;28;20452;-73
2022/12/24 02:22:14;;;;;;;14.65;5.47;;;;;;;1.80;100.00;99941.59;5015258;28;20387;-71
2022/12/24 02:24:49;;;;;;;10.85;5.68;;;;;;;1.85;100.00;99949.06;5006055;28;20048;-73
2022/12/24 02:27:27;;;;;;;16.47;5.60;;;;;;;1.94;100.00;99945.69;5016532;28;20034;-70
2022/12/24 02:30:04;;;;;;;17.00;5.80;;;;;;;1.90;100.00;99944.28;4996478;28;20026;-71
2022/12/24 02:32:42;;;;;;;13.93;5.72;;;;;;;1.92;100.00;99957.31;5016485;28;20041;-73
2022/12/24 02:35:17;;;;;;;12.90;5.45;;;;;;;1.90;100.00;99957.44;5011933;28;20033;-73
2022/12/24 02:37:57;;;;;;;21.87;6.53;;;;;;;1.76;100.00;99947.22;5014839;28;20657;-73
2022/12/24 02:40:48;;;;;;;16.73;7.05;;;;;;;1.87;100.00;99955.91;4998955;28;20101;-73
2022/12/24 02:43:19;;;;;;;22.25;6.20;;;;;;;1.89;100.00;99946.06;5002733;28;20099;-70
2022/12/24 02:45:50;;;;;;;22.52;7.07;;;;;;;1.94;100.00;99950.94;5003421;28;20042;-73
2022/12/24 02:48:19;;;;;;;14.35;6.40;;;;;;;1.96;100.00;99954.28;4991408;28;20128;-73
2022/12/24 02:51:03;;;;;;;12.60;5.47;;;;;;;2.00;100.00;99961.00;5001154;28;20478;-72
2022/12/24 02:53:29;;;;;;;16.15;5.68;;;;;;;1.96;100.00;99967.47;5017313;28;20067;-70
2022/12/24 02:56:13;;;;;;;;;;;;;;;1.89;100.00;99966.28;4989821;28;20117;-73
2022/12/24 02:59:21;;;;;;;9.18;3.67;;;;;;;1.90;100.00;99970.63;5004841;28;19916;-69
2022/12/24 03:02:12;;;;;;;13.77;6.15;;;;;;;1.86;100.00;99970.03;5014052;28;20033;-73
2022/12/24 03:04:58;;;;;;;16.05;4.63;;;;;;;2.00;100.00;99970.69;5014661;28;20037;-71
2022/12/24 03:07:38;;;;;;;11.35;6.03;;;;;;;2.07;100.00;99974.50;4999362;28;20041;-69
2022/12/24 03:10:27;;;;;;;13.98;5.10;;;;;;;2.01;100.00;99962.66;4999438;28;20496;-70
2022/12/24 03:13:03;;;;;;;14.60;5.30;;;;;;;2.01;100.00;99959.19;4989286;28;20042;-73
2022/12/24 03:15:31;;;;;;;13.55;4.30;;;;;;;2.06;100.00;99971.03;5017542;28;20694;-69
2022/12/24 03:18:00;;;;;;;15.10;4.72;;;;;;;1.98;100.00;99955.00;5004436;28;20506;-72
2022/12/24 03:20:33;;;;;;;19.58;5.10;;;;;;;2.08;100.00;99963.84;5008651;28;20634;-70
2022/12/24 03:22:59;;;;;;;12.43;4.53;;;;;;;2.07;100.00;99961.31;5013896;28;20041;-69
2022/12/24 03:25:25;;;;;;;14.18;4.50;;;;;;;2.10;100.00;99964.53;5015106;28;20044;-73
2022/12/24 03:27:51;;;;;;;13.50;4.68;;;;;;;2.04;100.00;99967.69;5014571;28;20042;-72
2022/12/24 03:30:17;;;;;;;11.77;3.63;;;;;;;1.96;100.00;99967.47;5014917;28;20091;-73
2022/12/24 03:32:43;;;;;;;11.23;4.30;;;;;;;1.98;100.00;99968.19;5015661;28;20048;-72
2022/12/24 03:35:09;;;;;;;14.45;4.78;;;;;;;2.00;100.00;99976.78;5014302;28;20138;-69
2022/12/24 03:37:34;;;;;;;15.32;4.95;;;;;;;2.01;100.00;99982.88;5013781;28;20070;-71
2022/12/24 03:39:59;;;;;;;7.20;3.90;;;;;;;1.98;100.00;99978.72;5004453;28;20049;-73
2022/12/24 03:42:25;;;;;;;10.77;4.13;;;;;;;2.01;100.00;99986.34;5016933;28;20122;-72
2022/12/24 03:44:50;;;;;;;6.70;3.80;;;;;;;2.00;100.00;99984.69;4993671;28;20285;-69
2022/12/24 03:47:15;;;;;;;6.43;3.72;;;;;;;2.00;100.00;99987.31;5015587;28;20555;-73
2022/12/24 03:49:41;;;;;;;18.02;4.00;;;;;;;2.04;100.00;99993.19;5015410;28;20033;-72
2022/12/24 03:52:06;;;;;;;16.50;5.13;;;;;;;2.06;100.00;100000.00;5013586;28;20030;-71
2022/12/24 03:54:31;;;;;;;11.80;3.57;;;;;;;2.02;100.00;100001.19;5016949;28;20296;-72
2022/12/24 03:56:57;;;;;;;13.20;6.20;;;;;;;2.06;100.00;99992.09;5013531;28;20284;-72
2022/12/24 03:59:22;;;;;;;11.73;4.20;;;;;;;1.99;100.00;99985.66;4997316;28;20034;-72
2022/12/24 04:01:48;;;;;;;11.03;4.93;;;;;;;2.00;100.00;99987.31;5000729;28;20319;-73
2022/12/24 04:04:13;;;;;;;9.17;4.93;;;;;;;2.01;100.00;99993.41;5014383;28;20041;-70
2022/12/24 04:06:38;;;;;;;13.13;4.93;;;;;;;1.96;100.00;99995.59;5015160;28;20312;-68
2022/12/24 04:09:04;;;;;;;11.90;4.30;;;;;;;1.92;100.00;100002.06;4984644;28;20128;-70
2022/12/24 04:11:30;;;;;;;12.48;4.15;;;;;;;1.98;100.00;100012.09;4998501;28;20076;-70
2022/12/24 04:13:55;;;;;;;;;;;;;;;1.96;100.00;100017.47;4987524;28;20124;-72
2022/12/24 04:16:21;;;;;;;17.58;5.53;;;;;;;2.00;100.00;100023.34;5006912;28;20434;-69
2022/12/24 04:18:47;;;;;;;13.50;4.93;;;;;;;1.97;100.00;100027.06;4993425;28;20033;-72
2022/12/24 04:21:12;;;;;;;14.95;6.80;;;;;;;2.03;100.00;100029.19;4990751;28;20562;-72
2022/12/24 04:23:39;;;;;;;13.32;6.07;;;;;;;1.95;100.00;100026.34;5015881;28;20532;-72
2022/12/24 04:26:07;;;;;;;15.13;4.57;;;;;;;1.96;100.00;100022.75;5013146;28;20030;-72
2022/12/24 04:28:33;;;;;;;10.63;4.47;;;;;;;2.01;100.00;100036.38;5018076;28;20060;-72
2022/12/24 04:31:03;;;;;;;15.98;5.53;;;;;;;2.00;100.00;100045.25;5003442;28;20243;-70
2022/12/24 04:33:29;;;;;;;16.35;5.43;;;;;;;1.98;100.00;100035.81;4991815;28;20111;-72
2022/12/24 04:35:58;;;;;;;22.63;6.03;;;;;;;1.92;100.00;100037.16;5012413;28;20033;-72
2022/12/24 04:38:24;;;;;;;9.35;5.00;;;;;;;1.99;100.00;100053.25;5015760;28;20037;-72
2022/12/24 04:40:59;;;;;;;16.20;5.57;;;;;;;1.94;100.00;100058.88;5013568;28;20029;-70
2022/12/24 04:43:25;;;;;;;14.07;4.75;;;;;;;1.93;100.00;100065.13;5014639;28;20047;-72
2022/12/24 04:45:51;;;;;;;16.17;5.93;;;;;;;1.97;100.00;100065.72;4995580;28;20034;-73
2022/12/24 04:48:16;;;;;;;18.43;5.87;;;;;;;1.93;100.00;100080.09;5012677;28;20048;-72
2022/12/24 04:50:41;;;;;;;12.03;5.03;;;;;;;1.96;100.00;100083.31;5002709;28;20303;-73
2022/12/24 04:53:07;;;;;;;25.30;7.03;;;;;;;1.96;100.00;100082.47;5017757;28;20092;-73
2022/12/24 04:55:32;;;;;;;16.57;6.80;;;;;;;1.97;100.00;100095.53;5015817;28;20037;-68
2022/12/24 04:57:57;;;;;;;18.30;7.57;;;;;;;2.01;100.00;100104.81;5011675;28;20284;-70
2022/12/24 05:00:23;;;;;;;20.40;5.93;;;;;;;2.01;100.00;100096.94;5015937;28;20038;-72
2022/12/24 05:02:48;;;;;;;13.25;5.25;;;;;;;2.02;100.00;100106.50;5013672;28;20704;-71
2022/12/24 05:05:13;;;;;;;16.03;5.83;;;;;;;2.05;100.00;100111.53;5013969;28;20030;-73
2022/12/24 05:07:39;;;;;;;13.87;5.20;;;;;;;2.05;100.00;100121.22;4993482;28;20273;-73
2022/12/24 05:10:05;;;;;;;17.67;7.07;;;;;;;1.92;100.00;100115.25;4995151;28;20487;-71
2022/12/24 05:12:30;;;;;;;;;;;;;;;2.00;100.00;100126.88;5016172;28;20037;-70
2022/12/24 05:14:56;;;;;;;20.55;7.15;;;;;;;1.93;100.00;100125.69;5011161;28;19913;-71
2022/12/24 05:17:21;;;;;;;22.97;6.47;;;;;;;1.93;100.00;100133.56;5017205;28;20095;-71
2022/12/24 05:19:46;;;;;;;16.70;6.67;;;;;;;1.99;100.00;100132.25;5019274;28;20296;-71
2022/12/24 05:27:53;;;;;;;14.00;6.13;;;;;;;1.91;100.00;100151.28;4982746;28;20064;-71
2022/12/24 05:30:19;;;;;;;17.75;7.82;;;;;;;1.82;100.00;100147.56;5021638;28;20017;-71
2022/12/24 05:32:44;;;;;;;15.98;6.93;;;;;;;1.89;100.00;100164.56;4992768;28;20041;-71
2022/12/24 05:35:09;;;;;;;22.60;7.20;;;;;;;1.68;100.00;100160.97;5019547;28;20065;-71
2022/12/24 05:37:35;;;;;;;23.37;8.07;;;;;;;1.68;100.00;100172.34;5019150;28;20288;-71
2022/12/24 05:40:00;;;;;;;21.93;7.40;;;;;;;1.80;100.00;100182.88;5016222;28;20044;-71
2022/12/24 05:42:25;;;;;;;20.60;7.13;;;;;;;1.74;100.00;100186.00;5018612;28;20034;-71
2022/12/24 05:44:50;;;;;;;17.10;6.87;;;;;;;1.82;100.00;100187.06;5000156;28;20843;-71
2022/12/24 05:47:16;;;;;;;20.93;8.37;;;;;;;1.90;100.00;100197.00;4999218;28;20233;-71
2022/12/24 05:49:41;;;;;;;27.87;8.90;;;;;;;1.83;100.00;100196.66;5017496;28;20322;-71
2022/12/24 05:52:06;;;;;;;31.90;8.03;;;;;;;1.83;100.00;100207.19;5020184;28;20084;-71
2022/12/24 05:54:32;;;;;;;21.60;7.67;;;;;;;1.83;100.00;100206.34;5019071;28;20084;-71
2022/12/24 05:56:57;;;;;;;21.03;7.70;;;;;;;1.73;100.00;100208.81;5015443;28;20288;-71
2022/12/24 05:59:22;;;;;;;24.03;8.33;;;;;;;1.86;100.00;100214.81;5017931;28;20085;-71
2022/12/24 06:01:48;;;;;;;43.47;9.82;;;;;;;1.77;100.00;100214.72;5017016;28;20065;-71
2022/12/24 06:04:13;;;;;;;15.50;6.97;;;;;;;1.82;100.00;100220.44;5010565;28;20387;-71
2022/12/24 06:06:38;;;;;;;20.40;8.88;;;;;;;1.87;100.00;100226.19;5015008;28;20030;-70
2022/12/24 06:09:04;;;;;;;13.40;7.17;;;;;;;1.77;100.00;100228.69;5028112;28;20168;-74
2022/12/24 06:11:30;;;;;;;21.73;8.30;;;;;;;1.86;100.00;100235.06;5023217;28;20045;-70
2022/12/24 06:13:55;;;;;;;24.17;8.13;;;;;;;1.82;100.00;100237.06;5008794;28;20281;-70
2022/12/24 06:16:23;;;;;;;25.00;9.95;;;;;;;1.81;100.00;100234.59;5017599;28;20033;-71
2022/12/24 06:18:48;;;;;;;21.38;8.45;;;;;;;1.82;100.00;100230.97;5017687;28;20036;-71
2022/12/24 06:21:14;;;;;;;26.92;9.23;;;;;;;1.71;100.00;100226.56;5012085;28;20034;-72
2022/12/24 06:23:42;;;;;;;28.63;9.02;;;;;;;1.85;100.00;100241.25;5016714;28;20034;-70
2022/12/24 06:26:10;;;;;;;21.13;8.48;;;;;;;1.74;100.00;100228.94;5016232;28;20201;-73
2022/12/24 06:28:37;;;;;;;22.27;7.88;;;;;;;1.85;100.00;100243.88;5007727;28;20565;-70
2022/12/24 06:31:03;;;;;;;24.50;8.75;;;;;;;1.78;100.00;100237.44;4990654;28;20109;-73
2022/12/24 06:33:30;;;;;;;20.48;9.65;;;;;;;1.74;100.00;100236.84;5014944;28;20467;-71
2022/12/24 06:35:55;;;;;;;22.20;8.77;;;;;;;1.72;100.00;100245.81;5014244;28;20432;-72
2022/12/24 06:38:20;;;;;;;18.50;7.90;;;;;;;1.80;100.00;100246.06;4999561;28;20132;-72
2022/12/24 06:40:46;;;;;;;34.47;10.65;;;;;;;1.86;100.00;100249.06;5019147;28;20087;-72
2022/12/24 06:43:13;;;;;;;27.80;7.93;;;;;;;1.82;100.00;100246.78;4993125;28;20447;-72
2022/12/24 06:45:39;;;;;;;18.08;8.48;;;;;;;1.89;100.00;100253.25;4987594;28;20073;-72
2022/12/24 06:48:05;;;;;;;;;;;;;;;1.75;100.00;100253.47;5016857;28;20112;-70
2022/12/24 06:50:32;;;;;;;22.13;8.63;;;;;;;1.75;100.00;100250.84;5012592;28;19939;-70
2022/12/24 06:52:57;;;;;;;26.58;9.18;;;;;;;1.66;100.00;100253.22;5002527;28;20457;-72
2022/12/24 06:55:23;;;;;;;29.83;11.55;;;;;;;1.67;100.00;100248.78;5023673;28;20021;-71
2022/12/24 06:57:48;;;;;;;22.95;9.07;;;;;;;1.56;100.00;100246.97;5017757;28;20036;-71
2022/12/24 07:00:14;;;;;;;24.07;8.57;;;;;;;1.76;100.00;100270.94;5019831;28;20047;-72
2022/12/24 07:02:40;;;;;;;28.85;9.65;;;;;;;1.68;100.00;100266.25;5007927;28;20117;-72
2022/12/24 07:05:08;;;;;;;23.48;9.70;;;;;;;1.60;100.00;100269.47;5015562;28;20041;-71
2022/12/24 07:07:34;;;;;;;21.85;8.95;;;;;;;1.65;100.00;100277.84;5007494;28;20025;-73
2022/12/24 07:09:59;;;;;;;28.40;9.07;;;;;;;1.79;100.00;100283.88;5007075;28;20033;-71
2022/12/24 07:12:25;;;;;;;25.57;9.93;;;;;;;1.78;100.00;100288.31;5021732;28;20029;-70
2022/12/24 07:14:50;;;;;;;23.50;9.20;;;;;;;1.78;100.00;100282.19;4995881;28;20041;-71
2022/12/24 07:17:16;;;;;;;26.37;9.70;;;;;;;1.75;100.00;100288.50;5013382;28;20041;-71
2022/12/24 07:19:41;;;;;;;24.03;8.63;;;;;;;1.71;100.00;100291.50;5008568;28;20033;-70
2022/12/24 07:22:06;;;;;;;18.27;8.13;;;;;;;1.77;100.00;100285.78;5002768;28;20033;-71
2022/12/24 07:24:32;;;;;;;21.43;7.70;;;;;;;1.77;100.00;100288.41;5008544;28;20300;-73
2022/12/24 07:26:57;;;;;;;31.17;9.93;;;;;;;1.82;100.00;100287.09;5024963;28;20045;-74
2022/12/24 07:29:22;;;;;;;23.57;8.20;;;;;;;1.82;100.00;100288.88;4982267;28;20196;-73
2022/12/24 07:31:48;;;;;;;22.80;8.83;;;;;;;1.82;100.00;100278.34;5011487;28;20303;-71
2022/12/24 07:34:13;;;;;;;26.37;8.37;;;;;;;1.83;100.00;100286.16;5010259;28;20725;-70
2022/12/24 07:36:38;;;;;;;21.80;8.87;;;;;;;1.86;100.00;100279.81;5006004;28;20288;-71
2022/12/24 07:39:04;;;;;;;18.57;9.63;;;;;;;1.81;100.00;100290.69;5013001;28;20350;-70
2022/12/24 07:41:29;;;;;;;18.85;8.25;;;;;;;1.85;100.00;100293.91;5021589;28;20060;-71
2022/12/24 07:43:54;;;;;;;21.93;7.93;;;;;;;1.96;100.00;100301.00;5026012;28;20022;-71
2022/12/24 07:46:20;;;;;;;26.37;8.73;;;;;;;1.92;100.00;100303.03;5010781;28;20037;-70
2022/12/24 07:48:45;;;;;;;26.67;9.47;;;;;;;1.97;100.00;100302.69;5004755;28;20391;-71
2022/12/24 07:51:10;;;;;;;21.33;8.23;;;;;;;1.97;100.00;100313.22;4980216;28;20065;-72
2022/12/24 07:53:36;;;;;;;25.80;11.13;;;;;;;1.94;100.00;100308.16;5005421;28;20042;-70
2022/12/24 07:56:01;;;;;;;27.92;11.77;;;;;;;1.85;100.00;100304.44;5021683;28;20029;-70
2022/12/24 07:58:27;;;;;;;26.88;9.35;;;;;;;1.93;100.00;100315.25;5014344;28;20037;-73
2022/12/24 08:00:58;;;;;;;21.40;9.48;;;;;;;1.92;100.00;100315.34;5004260;28;20045;-73
2022/12/24 08:03:23;;;;;;;21.88;9.10;;;;;;;1.95;100.00;100320.41;5006175;28;20121;-71
2022/12/24 08:05:51;;;;;;;24.27;8.70;;;;;;;1.93;100.00;100323.13;5009142;28;20120;-71
2022/12/24 08:08:17;;;;;;;27.13;9.93;;;;;;;1.97;100.00;100321.94;5005837;28;20288;-70
2022/12/24 08:10:44;;;;;;;20.20;8.40;;;;;;;2.02;100.00;100326.88;4998969;28;20064;-72
2022/12/24 08:13:09;;;;;;;27.25;9.75;;;;;;;1.97;100.00;100327.22;5014555;28;20487;-72
2022/12/24 08:15:34;;;;;;;28.90;10.53;;;;;;;2.01;100.00;100318.09;5018513;28;20044;-70
2022/12/24 08:18:00;;;;;;;22.30;10.83;;;;;;;2.03;100.00;100323.25;5021371;28;20292;-70
2022/12/24 08:20:25;;;;;;;30.23;9.60;;;;;;;1.96;100.00;100325.53;5007816;28;20051;-72
2022/12/24 08:22:52;;;;;;;29.03;10.73;;;;;;;1.99;100.00;100329.72;5014162;28;20041;-70
2022/12/24 08:25:17;;;;;;;27.30;10.95;;;;;;;2.02;100.00;100327.69;5005454;28;20908;-74
2022/12/24 08:27:42;;;;;;;24.38;9.60;;;;;;;1.93;100.00;100324.94;5005688;28;20050;-72
2022/12/24 08:30:08;;;;;;;24.53;10.03;;;;;;;1.98;100.00;100320.16;5005480;28;20061;-72
2022/12/24 08:32:34;;;;;;;24.77;10.95;;;;;;;1.94;100.00;100319.53;5005625;28;20068;-72
2022/12/24 08:34:59;;;;;;;25.17;10.83;;;;;;;1.93;100.00;100323.13;5003503;28;20065;-70
2022/12/24 08:37:24;;;;;;;25.33;9.73;;;;;;;1.83;100.00;100323.00;5017910;28;20766;-70
2022/12/24 08:39:50;;;;;;;25.00;10.57;;;;;;;1.81;100.00;100329.34;5016222;28;20540;-72
2022/12/24 08:42:15;;;;;;;24.63;10.37;;;;;;;1.89;100.00;100333.03;5011006;28;20453;-70
2022/12/24 08:44:41;;;;;;;23.85;10.32;;;;;;;1.89;100.00;100348.84;5018662;28;20370;-71
2022/12/24 08:47:06;;;;;;;34.43;10.87;;;;;;;1.89;100.00;100354.09;5009168;28;20065;-70
2022/12/24 08:49:31;;;;;;;32.17;11.98;;;;;;;1.85;100.00;100354.44;5016830;28;20123;-70
2022/12/24 08:51:56;;;;;;;29.27;12.17;;;;;;;1.82;100.00;100357.31;5006190;28;20029;-71
2022/12/24 08:54:24;;;;;;;37.33;11.60;;;;;;;1.94;100.00;100361.66;5016402;28;20522;-73
2022/12/24 08:56:49;;;;;;;26.70;11.48;;;;;;;1.96;100.00;100359.75;5012671;28;20812;-70
2022/12/24 08:59:15;;;;;;;28.63;10.77;;;;;;;2.03;100.00;100366.22;5009136;28;20034;-72
2022/12/24 09:01:40;;;;;;;29.13;12.10;;;;;;;2.02;100.00;100359.28;5009042;28;20052;-70
2022/12/24 09:04:05;;;;;;;27.00;11.50;;;;;;;2.08;100.00;100361.47;5009143;28;20288;-70
2022/12/24 09:06:32;;;;;;;29.75;12.55;;;;;;;2.06;100.00;100355.47;5007650;28;20038;-72
2022/12/24 09:08:57;;;;;;;;;;;;;;;2.17;100.00;100361.72;5007848;28;20828;-74
2022/12/24 09:11:23;;;;;;;31.02;11.70;;;;;;;2.25;100.00;100370.72;5014494;28;19921;-71
2022/12/24 09:13:48;;;;;;;28.95;11.40;;;;;;;2.28;100.00;100365.19;5027333;28;20037;-71
2022/12/24 09:16:14;;;;;;;29.08;11.38;;;;;;;2.32;100.00;100365.81;5026758;28;20049;-70
2022/12/24 09:18:39;;;;;;;24.40;13.67;;;;;;;2.29;100.00;100366.03;5009502;28;20534;-73
2022/12/24 09:21:08;;;;;;;26.83;13.45;;;;;;;2.41;100.00;100375.63;5021208;28;20307;-70
2022/12/24 09:23:38;;;;;;;29.42;13.07;;;;;;;2.43;100.00;100373.69;5011018;28;20052;-71
2022/12/24 09:26:15;;;;;;;28.60;14.57;;;;;;;2.47;100.00;100385.69;5019976;28;20491;-73
2022/12/24 09:28:41;;;;;;;30.55;12.73;;;;;;;2.69;100.00;100387.50;5011841;28;20050;-71
2022/12/24 09:31:06;;;;;;;32.67;14.60;;;;;;;3.00;100.00;100405.31;5012121;28;20826;-71
2022/12/24 09:33:35;;;;;;;30.77;12.93;;;;;;;2.67;100.00;100385.91;5011725;28;20125;-72
2022/12/24 09:36:01;;;;;;;29.23;13.30;;;;;;;2.84;100.00;100392.53;4992342;28;20355;-71
2022/12/24 09:38:27;;;;;;;25.30;11.50;;;;;;;2.86;100.00;100390.59;5024178;28;20091;-71
2022/12/24 09:40:54;;;;;;;27.83;13.48;;;;;;;2.86;100.00;100386.16;5027955;28;20029;-73
2022/12/24 09:43:22;;;;;;;29.30;14.25;;;;;;;2.86;100.00;100382.69;5018705;28;20040;-71
2022/12/24 09:46:19;;;;;;;98.05;50.97;;;;;;;2.73;100.00;100381.00;5010180;28;20029;-71
2022/12/24 09:48:49;;;;;;;39.42;21.10;;;;;;;2.74;100.00;100376.59;5008415;28;20091;-71
2022/12/24 09:51:30;;;;;;;86.28;41.08;;;;;;;2.78;100.00;100379.81;5007065;28;20133;-71
2022/12/24 09:54:16;;;;;;;64.20;32.05;;;;;;;2.84;100.00;100393.34;5026914;28;20495;-71
2022/12/24 09:56:46;;;;;;;47.03;24.10;;;;;;;2.95;100.00;100401.25;5017964;28;20087;-70
2022/12/24 09:59:24;;;;;;;53.35;29.15;;;;;;;2.88;100.00;100389.53;5022899;28;20030;-71
2022/12/24 10:01:52;;;;;;;101.63;48.85;;;;;;;2.88;100.00;100386.03;5003014;28;20486;-71
2022/12/24 10:04:21;;;;;;;37.58;18.13;;;;;;;2.93;100.00;100392.63;5021874;28;20064;-71
2022/12/24 10:06:57;;;;;;;89.55;41.70;;;;;;;2.94;100.00;100393.44;5007722;28;20040;-72
2022/12/24 10:09:56;;;;;;;135.43;65.57;;;;;;;2.85;100.00;100388.91;5013565;28;20076;-74
2022/12/24 10:12:39;;;;;;;69.57;31.52;;;;;;;2.91;100.00;100384.00;5020920;28;20115;-72
2022/12/24 10:15:17;;;;;;;98.47;47.88;;;;;;;2.83;100.00;100381.09;5007765;28;20061;-73
2022/12/24 10:17:50;;;;;;;51.45;25.58;;;;;;;2.86;100.00;100385.34;5016092;28;20030;-72
2022/12/24 10:20:46;;;;;;;41.85;21.83;;;;;;;2.87;100.00;100387.81;5024145;28;20043;-71
2022/12/24 10:23:42;;;;;;;35.95;16.50;;;;;;;2.79;100.00;100386.78;5010994;28;20096;-71
2022/12/24 10:26:23;;;;;;;17.70;10.25;;;;;;;2.85;100.00;100379.19;5007424;28;20545;-72
2022/12/24 10:29:00;;;;;;;22.55;11.25;;;;;;;2.93;100.00;100389.16;5021487;28;20233;-71
2022/12/24 10:31:29;;;;;;;13.80;6.18;;;;;;;2.98;100.00;100389.63;5017675;28;20037;-71
2022/12/24 10:34:00;;;;;;;12.70;5.70;;;;;;;3.19;100.00;100396.78;5007463;28;20017;-71
2022/12/24 10:36:28;;;;;;;13.88;6.63;;;;;;;3.26;100.00;100393.53;5010591;28;20041;-72
2022/12/24 10:38:54;;;;;;;20.92;7.10;;;;;;;3.26;100.00;100388.25;4985625;28;20442;-71
2022/12/24 10:41:20;;;;;;;13.95;6.15;;;;;;;3.13;100.00;100379.63;5011361;28;20049;-72
2022/12/24 10:43:47;;;;;;;44.97;23.75;;;;;;;3.10;100.00;100378.09;5011613;28;20116;-71
2022/12/24 10:46:22;;;;;;;13.65;8.52;;;;;;;3.35;100.00;100387.50;5013705;28;20037;-71
2022/12/24 10:48:53;;;;;;;13.52;8.05;;;;;;;3.08;100.00;100371.25;5009152;28;20446;-71
2022/12/24 10:51:40;;;;;;;18.67;12.65;;;;;;;3.11;100.00;100387.69;5008585;28;20041;-71
2022/12/24 10:54:14;;;;;;;6.35;3.22;;;;;;;2.87;100.00;100387.00;5012057;28;20037;-71
2022/12/24 10:56:49;;;;;;;17.80;5.57;;;;;;;2.87;100.00;100390.47;5024129;28;20088;-71
2022/12/24 10:59:41;;;;;;;109.57;44.63;;;;;;;2.94;100.00;100401.38;5014152;28;20034;-71
2022/12/24 11:02:30;;;;;;;14.65;6.68;;;;;;;2.79;100.00;100392.88;5008801;28;20034;-72
2022/12/24 11:04:59;;;;;;;21.13;11.00;;;;;;;2.78;100.00;100383.28;5006064;28;20423;-71
2022/12/24 11:07:25;;;;;;;13.27;4.10;;;;;;;2.87;100.00;100398.38;5009108;28;20579;-71
2022/12/24 11:10:05;;;;;;;12.80;3.88;;;;;;;2.88;100.00;100400.06;4992301;28;20418;-71
2022/12/24 11:12:37;;;;;;;8.15;4.30;;;;;;;2.80;100.00;100399.81;4993244;28;20113;-71
2022/12/24 11:15:05;;;;;;;10.27;4.22;;;;;;;2.65;100.00;100388.69;5009786;28;20033;-72
2022/12/24 11:17:32;;;;;;;13.45;4.90;;;;;;;2.63;100.00;100393.25;5006380;28;20054;-71
2022/12/24 11:19:58;;;;;;;41.63;26.38;;;;;;;2.77;100.00;100409.78;5007957;28;20034;-71
2022/12/24 11:22:29;;;;;;;21.38;7.38;;;;;;;2.77;100.00;100400.06;5009071;28;20100;-72
2022/12/24 11:25:19;;;;;;;12.20;4.60;;;;;;;2.82;100.00;100394.44;5006472;28;20042;-71
2022/12/24 11:27:50;;;;;;;18.10;9.80;;;;;;;2.75;100.00;100409.88;5006281;28;20554;-71
2022/12/24 11:30:15;;;;;;;11.13;4.65;;;;;;;2.75;100.00;100397.53;5004311;28;20048;-71
2022/12/24 11:32:46;;;;;;;16.63;10.48;;;;;;;2.69;100.00;100411.22;5025857;28;20029;-71
2022/12/24 11:35:23;;;;;;;16.65;5.35;;;;;;;2.73;100.00;100412.63;5025821;28;20030;-71
2022/12/24 11:38:03;;;;;;;23.10;9.88;;;;;;;2.70;100.00;100412.06;5015143;28;20049;-71